createdAt,value
2018-06-05T00:01:26.660Z,16.00
2018-06-05T00:06:24.053Z,15.80
2018-06-05T00:08:53.094Z,15.80
2018-06-05T00:11:21.916Z,15.80
2018-06-05T00:19:16.718Z,15.80
2018-06-05T00:21:45.496Z,15.80
2018-06-05T00:24:14.341Z,15.80
2018-06-05T00:26:43.161Z,15.80
2018-06-05T00:29:11.925Z,15.90
2018-06-05T00:31:41.054Z,15.90
2018-06-05T00:34:09.810Z,15.90
2018-06-05T00:36:38.681Z,15.90
2018-06-05T00:39:07.989Z,15.90
2018-06-05T00:41:36.765Z,15.90
2018-06-05T00:44:05.525Z,15.90
2018-06-05T00:46:34.330Z,16.00
2018-06-05T00:49:03.118Z,16.00
2018-06-05T00:51:43.341Z,15.80
2018-06-05T00:54:12.159Z,15.90
2018-06-05T00:56:41.021Z,15.70
2018-06-05T00:59:09.909Z,15.80
2018-06-05T01:01:38.742Z,15.70
2018-06-05T01:04:07.525Z,15.80
2018-06-05T01:06:36.332Z,15.90
2018-06-05T01:11:35.081Z,15.60
2018-06-05T01:14:04.022Z,15.70
2018-06-05T01:16:32.818Z,15.60
2018-06-05T01:23:58.810Z,15.70
2018-06-05T01:26:27.632Z,15.70
2018-06-05T01:28:56.425Z,15.70
2018-06-05T01:31:25.198Z,15.70
2018-06-05T01:33:53.941Z,15.60
2018-06-05T01:36:22.709Z,15.60
2018-06-05T01:38:51.701Z,15.50
2018-06-05T01:41:20.694Z,15.60
2018-06-05T01:43:49.473Z,15.50
2018-06-05T01:46:18.265Z,15.40
2018-06-05T01:48:47.013Z,15.40
2018-06-05T01:51:15.782Z,15.30
2018-06-05T01:53:44.565Z,15.20
2018-06-05T01:56:13.375Z,15.30
2018-06-05T02:01:10.673Z,15.30
2018-06-05T02:03:39.442Z,15.30
2018-06-05T02:06:08.225Z,15.10
2018-06-05T02:08:37.114Z,15.00
2018-06-05T02:11:05.889Z,15.00
2018-06-05T02:13:34.657Z,15.10
2018-06-05T02:16:03.441Z,15.10
2018-06-05T02:21:00.753Z,15.00
2018-06-05T02:23:29.565Z,15.10
2018-06-05T02:25:58.341Z,15.20
2018-06-05T02:28:27.157Z,15.30
2018-06-05T02:30:55.999Z,15.30
2018-06-05T02:33:24.797Z,15.30
2018-06-05T02:35:53.595Z,15.30
2018-06-05T02:38:22.346Z,15.40
2018-06-05T02:40:53.518Z,15.30
2018-06-05T02:43:22.338Z,15.30
2018-06-05T02:45:51.533Z,15.20
2018-06-05T02:48:20.312Z,15.20
2018-06-05T02:50:49.290Z,15.10
2018-06-05T02:53:18.158Z,15.00
2018-06-05T02:55:47.010Z,15.10
2018-06-05T02:58:15.778Z,14.90
2018-06-05T03:00:44.565Z,15.10
2018-06-05T03:03:13.335Z,15.10
2018-06-05T03:05:42.138Z,15.10
2018-06-05T03:08:10.965Z,15.10
2018-06-05T03:10:39.862Z,15.20
2018-06-05T03:15:37.081Z,15.30
2018-06-05T03:18:05.842Z,15.20
2018-06-05T03:20:34.620Z,15.20
2018-06-05T03:25:32.000Z,15.20
2018-06-05T03:28:00.762Z,15.20
2018-06-05T03:30:30.620Z,15.30
2018-06-05T03:32:59.473Z,15.30
2018-06-05T03:35:28.353Z,15.20
2018-06-05T03:37:57.142Z,15.20
2018-06-05T03:40:26.000Z,15.20
2018-06-05T03:42:54.797Z,15.20
2018-06-05T03:45:23.566Z,15.20
2018-06-05T03:47:52.353Z,15.40
2018-06-05T03:50:21.149Z,15.30
2018-06-05T03:52:49.937Z,15.40
2018-06-05T03:55:18.717Z,15.50
2018-06-05T03:57:47.628Z,15.40
2018-06-05T04:00:16.438Z,15.50
2018-06-05T04:02:45.209Z,15.50
2018-06-05T04:05:14.138Z,15.60
2018-06-05T04:10:11.386Z,15.50
2018-06-05T04:12:40.158Z,15.40
2018-06-05T04:15:08.946Z,15.40
2018-06-05T04:17:37.837Z,15.50
2018-06-05T04:20:06.645Z,15.60
2018-06-05T04:22:35.412Z,15.60
2018-06-05T04:25:04.229Z,15.50
2018-06-05T04:27:33.123Z,15.50
2018-06-05T04:30:02.010Z,15.30
2018-06-05T04:32:30.781Z,15.40
2018-06-05T04:34:59.595Z,15.50
2018-06-05T04:39:56.853Z,15.50
2018-06-05T04:42:25.677Z,15.50
2018-06-05T04:44:54.598Z,15.50
2018-06-05T04:47:23.386Z,15.60
2018-06-05T04:49:52.353Z,15.60
2018-06-05T04:52:21.125Z,15.70
2018-06-05T04:54:49.915Z,15.80
2018-06-05T04:57:18.696Z,15.80
2018-06-05T04:59:47.449Z,15.80
2018-06-05T05:02:16.236Z,15.80
2018-06-05T05:04:44.996Z,15.90
2018-06-05T05:07:13.754Z,15.90
2018-06-05T05:09:42.529Z,15.80
2018-06-05T05:12:11.326Z,15.90
2018-06-05T05:14:40.077Z,16.10
2018-06-05T05:17:08.944Z,16.10
2018-06-05T05:19:37.690Z,16.10
2018-06-05T05:24:34.966Z,16.50
2018-06-05T05:27:03.745Z,16.50
2018-06-05T05:29:32.509Z,16.50
2018-06-05T05:32:01.281Z,16.50
2018-06-05T05:34:30.029Z,16.50
2018-06-05T05:36:58.802Z,16.50
2018-06-05T05:39:27.553Z,16.60
2018-06-05T05:41:56.372Z,16.60
2018-06-05T05:49:22.297Z,17.00
2018-06-05T05:51:51.121Z,17.00
2018-06-05T05:59:16.870Z,17.30
2018-06-05T06:04:14.110Z,17.20
2018-06-05T06:06:42.926Z,17.30
2018-06-05T06:09:11.713Z,17.20
2018-06-05T06:11:40.481Z,17.20
2018-06-05T06:14:09.292Z,17.20
2018-06-05T06:16:38.081Z,17.20
2018-06-05T06:19:06.841Z,17.10
2018-06-05T06:21:35.673Z,17.00
2018-06-05T06:26:32.930Z,16.90
2018-06-05T06:29:01.697Z,16.80
2018-06-05T06:31:30.482Z,16.70
2018-06-05T06:33:59.245Z,16.60
2018-06-05T06:36:28.005Z,16.60
2018-06-05T06:38:56.769Z,16.70
2018-06-05T06:41:25.562Z,16.60
2018-06-05T06:43:54.321Z,16.60
2018-06-05T06:46:23.195Z,16.60
2018-06-05T06:48:52.016Z,16.60
2018-06-05T06:53:49.201Z,16.60
2018-06-05T06:58:46.436Z,16.60
2018-06-05T07:01:15.218Z,16.60
2018-06-05T07:03:44.006Z,16.60
2018-06-05T07:06:12.794Z,16.50
2018-06-05T07:08:41.580Z,16.60
2018-06-05T07:11:10.355Z,16.50
2018-06-05T07:13:39.141Z,16.40
2018-06-05T07:16:07.901Z,16.60
2018-06-05T07:18:36.682Z,16.60
2018-06-05T07:23:33.957Z,16.50
2018-06-05T07:28:31.213Z,16.60
2018-06-05T07:30:59.997Z,16.60
2018-06-05T07:33:28.790Z,16.60
2018-06-05T07:35:57.550Z,16.60
2018-06-05T07:38:26.329Z,16.60
2018-06-05T07:40:55.084Z,16.70
2018-06-05T07:43:23.845Z,16.80
2018-06-05T07:48:21.103Z,16.80
2018-06-05T07:50:50.001Z,16.80
2018-06-05T07:53:18.769Z,16.80
2018-06-05T07:55:47.534Z,16.80
2018-06-05T07:58:16.295Z,16.70
2018-06-05T08:00:45.046Z,16.80
2018-06-05T08:03:13.909Z,16.80
2018-06-05T08:05:42.861Z,16.90
2018-06-05T08:10:40.105Z,16.90
2018-06-05T08:13:08.872Z,16.90
2018-06-05T08:15:37.785Z,17.00
2018-06-05T08:18:06.565Z,17.00
2018-06-05T08:20:35.319Z,17.00
2018-06-05T08:23:04.118Z,17.10
2018-06-05T08:25:32.941Z,17.20
2018-06-05T08:28:01.705Z,17.20
2018-06-05T08:30:30.488Z,17.20
2018-06-05T08:32:59.275Z,17.20
2018-06-05T08:35:28.045Z,17.30
2018-06-05T08:37:56.842Z,17.30
2018-06-05T08:40:25.568Z,17.40
2018-06-05T08:42:54.329Z,17.40
2018-06-05T08:45:23.106Z,17.50
2018-06-05T08:47:51.857Z,17.60
2018-06-05T08:50:20.622Z,17.60
2018-06-05T08:52:49.388Z,17.60
2018-06-05T08:55:18.149Z,17.60
2018-06-05T08:57:46.953Z,17.80
2018-06-05T09:00:15.724Z,18.00
2018-06-05T09:02:44.477Z,18.20
2018-06-05T09:07:41.711Z,18.30
2018-06-05T09:10:10.522Z,18.30
2018-06-05T09:12:39.401Z,18.40
2018-06-05T09:15:08.201Z,18.50
2018-06-05T09:17:36.969Z,18.60
2018-06-05T09:20:05.746Z,18.60
2018-06-05T09:22:34.529Z,18.70
2018-06-05T09:25:03.291Z,18.80
2018-06-05T09:27:32.046Z,18.90
2018-06-05T09:30:00.809Z,19.00
2018-06-05T09:32:29.725Z,19.20
2018-06-05T09:34:58.501Z,19.30
2018-06-05T09:37:27.276Z,19.40
2018-06-05T09:39:56.605Z,19.60
2018-06-05T09:42:25.393Z,19.70
2018-06-05T09:49:51.449Z,20.10
2018-06-05T09:52:20.296Z,20.30
2018-06-05T09:54:49.052Z,20.50
2018-06-05T09:57:17.814Z,20.70
2018-06-05T09:59:46.576Z,20.60
2018-06-05T10:02:15.380Z,20.60
2018-06-05T10:04:44.141Z,20.50
2018-06-05T10:07:12.913Z,20.50
2018-06-05T10:09:41.672Z,20.70
2018-06-05T10:12:10.442Z,20.90
2018-06-05T10:14:39.222Z,21.10
2018-06-05T10:17:07.989Z,21.40
2018-06-05T10:19:36.765Z,21.40
2018-06-05T10:22:05.549Z,21.20
2018-06-05T10:24:34.312Z,21.40
2018-06-05T10:27:03.070Z,21.50
2018-06-05T10:29:31.839Z,21.90
2018-06-05T10:32:00.597Z,22.10
2018-06-05T10:34:29.365Z,22.20
2018-06-05T10:36:58.122Z,22.30
2018-06-05T10:39:26.893Z,22.30
2018-06-05T10:41:55.752Z,22.60
2018-06-05T10:44:25.614Z,22.80
2018-06-05T10:46:54.377Z,22.90
2018-06-05T10:49:23.321Z,22.80
2018-06-05T10:51:52.106Z,23.10
2018-06-05T10:54:20.877Z,23.30
2018-06-05T10:59:18.133Z,23.30
2018-06-05T11:01:46.885Z,23.10
2018-06-05T11:04:15.668Z,23.20
2018-06-05T11:06:44.398Z,23.70
2018-06-05T11:09:13.431Z,23.90
2018-06-05T11:11:42.257Z,23.70
2018-06-05T11:14:11.045Z,24.00
2018-06-05T11:16:40.852Z,24.00
2018-06-05T11:19:09.674Z,23.90
2018-06-05T11:21:38.553Z,24.10
2018-06-05T11:24:07.317Z,24.30
2018-06-05T11:26:36.090Z,24.60
2018-06-05T11:29:05.209Z,24.50
2018-06-05T11:31:33.988Z,24.60
2018-06-05T11:34:02.737Z,24.90
2018-06-05T11:36:31.519Z,25.20
2018-06-05T11:41:28.733Z,25.10
2018-06-05T11:43:57.476Z,24.90
2018-06-05T11:46:26.281Z,24.90
2018-06-05T11:48:55.046Z,25.50
2018-06-05T11:53:52.372Z,25.60
2018-06-05T11:56:21.136Z,25.90
2018-06-05T11:58:49.889Z,25.80
2018-06-05T12:01:18.696Z,25.90
2018-06-05T12:06:15.954Z,26.00
2018-06-05T12:08:44.745Z,26.00
2018-06-05T12:11:13.533Z,26.20
2018-06-05T12:16:10.749Z,26.50
2018-06-05T12:18:39.500Z,26.50
2018-06-05T12:21:08.293Z,26.50
2018-06-05T12:23:37.057Z,26.20
2018-06-05T12:26:05.853Z,26.40
2018-06-05T12:28:34.760Z,26.30
2018-06-05T12:31:05.690Z,26.30
2018-06-05T12:33:34.416Z,26.40
2018-06-05T12:36:03.177Z,26.30
2018-06-05T12:38:31.942Z,26.30
2018-06-05T12:43:29.165Z,26.50
2018-06-05T12:45:57.992Z,26.50
2018-06-05T12:48:27.148Z,26.50
2018-06-05T12:50:56.046Z,26.40
2018-06-05T12:53:24.794Z,26.70
2018-06-05T12:58:22.434Z,26.50
2018-06-05T13:00:51.253Z,26.50
2018-06-05T13:08:16.998Z,26.30
2018-06-05T13:10:45.776Z,26.60
2018-06-05T13:13:14.538Z,27.10
2018-06-05T13:15:43.317Z,26.60
2018-06-05T13:18:12.105Z,27.10
2018-06-05T13:20:40.893Z,27.00
2018-06-05T13:23:09.699Z,27.40
2018-06-05T13:25:38.448Z,27.30
2018-06-05T13:28:07.213Z,27.30
2018-06-05T13:30:36.006Z,27.00
2018-06-05T13:33:04.769Z,27.00
2018-06-05T13:38:02.053Z,27.60
2018-06-05T13:40:30.829Z,27.40
2018-06-05T13:42:59.605Z,27.00
2018-06-05T13:45:28.370Z,27.20
2018-06-05T13:47:57.206Z,27.10
2018-06-05T13:50:25.966Z,27.10
2018-06-05T13:52:54.774Z,27.40
2018-06-05T13:55:23.533Z,27.20
2018-06-05T13:57:52.299Z,27.40
2018-06-05T14:00:21.049Z,27.50
2018-06-05T14:02:49.822Z,27.10
2018-06-05T14:05:18.577Z,27.10
2018-06-05T14:07:47.360Z,27.20
2018-06-05T14:10:16.113Z,27.30
2018-06-05T14:15:13.357Z,27.50
2018-06-05T14:17:42.126Z,27.80
2018-06-05T14:20:10.894Z,27.90
2018-06-05T14:22:39.788Z,28.00
2018-06-05T14:25:08.548Z,27.60
2018-06-05T14:30:05.961Z,27.80
2018-06-05T14:32:34.721Z,27.60
2018-06-05T14:35:03.477Z,27.80
2018-06-05T14:40:00.734Z,27.50
2018-06-05T14:42:29.509Z,27.30
2018-06-05T14:44:58.352Z,27.50
2018-06-05T14:47:27.041Z,27.80
2018-06-05T14:49:55.789Z,28.50
2018-06-05T14:52:24.561Z,28.10
2018-06-05T14:54:53.325Z,28.30
2018-06-05T14:57:22.709Z,28.00
2018-06-05T14:59:51.565Z,27.70
2018-06-05T15:02:20.329Z,28.40
2018-06-05T15:04:49.093Z,28.20
2018-06-05T15:07:17.877Z,28.10
2018-06-05T15:09:46.766Z,27.70
2018-06-05T15:12:15.573Z,27.80
2018-06-05T15:14:44.493Z,28.00
2018-06-05T15:17:13.246Z,28.50
2018-06-05T15:19:41.993Z,28.20
2018-06-05T15:24:39.681Z,28.20
2018-06-05T15:29:37.148Z,27.80
2018-06-05T15:32:06.241Z,28.40
2018-06-05T15:37:03.478Z,28.10
2018-06-05T15:39:32.401Z,27.70
2018-06-05T15:44:29.669Z,27.70
2018-06-05T15:54:23.895Z,27.70
2018-06-05T15:56:52.677Z,28.10
2018-06-05T15:59:21.466Z,28.30
2018-06-05T16:01:50.233Z,28.40
2018-06-05T16:04:19.017Z,28.60
2018-06-05T16:06:47.937Z,28.50
2018-06-05T16:09:16.930Z,28.50
2018-06-05T16:11:45.713Z,28.70
2018-06-05T16:14:14.669Z,29.00
2018-06-05T16:16:43.451Z,29.10
2018-06-05T16:19:12.222Z,28.80
2018-06-05T16:21:41.002Z,28.40
2018-06-05T16:24:09.784Z,28.50
2018-06-05T16:29:07.033Z,27.50
2018-06-05T16:31:35.797Z,27.60
2018-06-05T16:34:04.565Z,27.80
2018-06-05T16:36:33.314Z,27.90
2018-06-05T16:39:02.085Z,28.20
2018-06-05T16:41:30.866Z,28.30
2018-06-05T16:43:59.636Z,28.60
2018-06-05T16:46:28.790Z,27.70
2018-06-05T16:48:57.573Z,27.60
2018-06-05T16:51:26.361Z,27.40
2018-06-05T16:53:55.150Z,27.30
2018-06-05T16:56:23.905Z,27.90
2018-06-05T16:58:52.689Z,27.80
2018-06-05T17:01:21.502Z,27.70
2018-06-05T17:06:18.786Z,27.60
2018-06-05T17:08:47.575Z,27.70
2018-06-05T17:11:16.620Z,27.60
2018-06-05T17:13:45.460Z,27.90
2018-06-05T17:16:15.148Z,27.80
2018-06-05T17:18:44.042Z,27.40
2018-06-05T17:21:12.810Z,27.50
2018-06-05T17:23:41.754Z,27.20
2018-06-05T17:26:10.704Z,27.30
2018-06-05T17:28:39.466Z,27.10
2018-06-05T17:31:08.253Z,26.50
2018-06-05T17:33:37.079Z,26.70
2018-06-05T17:38:34.353Z,26.80
2018-06-05T17:43:31.586Z,26.60
2018-06-05T17:46:00.428Z,26.80
2018-06-05T17:48:29.302Z,27.10
2018-06-05T17:50:58.164Z,26.90
2018-06-05T17:53:27.029Z,26.60
2018-06-05T17:55:55.800Z,26.50
2018-06-05T17:58:24.558Z,26.80
2018-06-05T18:05:50.320Z,26.70
2018-06-05T18:08:19.070Z,26.40
2018-06-05T18:10:47.881Z,26.40
2018-06-05T18:13:16.645Z,26.60
2018-06-05T18:15:45.412Z,26.70
2018-06-05T18:18:14.197Z,26.80
2018-06-05T18:20:42.959Z,26.60
2018-06-05T18:23:11.725Z,26.50
2018-06-05T18:25:40.537Z,26.40
2018-06-05T18:28:09.317Z,26.20
2018-06-05T18:30:38.297Z,26.10
2018-06-05T18:33:07.070Z,25.80
2018-06-05T18:35:35.865Z,25.90
2018-06-05T18:38:04.638Z,26.00
2018-06-05T18:40:33.400Z,25.80
2018-06-05T18:43:02.147Z,25.80
2018-06-05T18:47:59.369Z,26.50
2018-06-05T18:50:28.117Z,26.10
2018-06-05T18:55:26.978Z,25.80
2018-06-05T18:57:55.740Z,25.20
2018-06-05T19:00:24.561Z,25.00
2018-06-05T19:02:53.432Z,24.60
2018-06-05T19:05:22.222Z,24.40
2018-06-05T19:07:50.958Z,24.30
2018-06-05T19:12:48.169Z,24.00
2018-06-05T19:15:16.921Z,23.90
2018-06-05T19:22:42.625Z,23.40
2018-06-05T19:25:11.397Z,23.30
2018-06-05T19:27:40.146Z,23.20
2018-06-05T19:32:37.397Z,23.00
2018-06-05T19:35:06.165Z,22.90
2018-06-05T19:37:34.923Z,22.70
2018-06-05T19:40:03.701Z,22.50
2018-06-05T19:42:32.452Z,22.50
2018-06-05T19:45:01.202Z,22.40
2018-06-05T19:47:30.042Z,22.30
2018-06-05T19:52:28.837Z,22.10
2018-06-05T19:54:57.598Z,22.10
2018-06-05T19:57:26.401Z,22.00
2018-06-05T19:59:55.167Z,21.90
2018-06-05T20:02:23.954Z,21.80
2018-06-05T20:04:52.725Z,21.60
2018-06-05T20:07:21.491Z,21.40
2018-06-05T20:09:50.253Z,21.20
2018-06-05T20:12:19.038Z,21.20
2018-06-05T20:14:47.733Z,21.10
2018-06-05T20:17:16.488Z,21.00
2018-06-05T20:19:45.255Z,20.90
2018-06-05T20:22:14.588Z,20.80
2018-06-05T20:24:49.185Z,20.70
2018-06-05T20:27:18.657Z,20.70
2018-06-05T20:29:47.421Z,20.60
2018-06-05T20:32:16.367Z,20.50
2018-06-05T20:34:45.329Z,20.40
2018-06-05T20:37:14.118Z,20.40
2018-06-05T20:39:42.862Z,20.30
2018-06-05T20:42:11.634Z,20.20
2018-06-05T20:44:40.383Z,20.10
2018-06-05T20:49:37.685Z,20.00
2018-06-05T20:52:06.476Z,19.90
2018-06-05T20:54:35.197Z,19.80
2018-06-05T20:57:03.953Z,19.80
2018-06-05T20:59:32.702Z,19.70
2018-06-05T21:04:29.961Z,19.60
2018-06-05T21:09:27.197Z,19.60
2018-06-05T21:11:55.977Z,19.50
2018-06-05T21:14:24.727Z,19.50
2018-06-05T21:16:53.515Z,19.40
2018-06-05T21:19:22.248Z,19.40
2018-06-05T21:21:51.010Z,19.40
2018-06-05T21:24:19.749Z,19.30
2018-06-05T21:26:48.529Z,19.30
2018-06-05T21:29:17.282Z,19.20
2018-06-05T21:31:46.102Z,19.20
2018-06-05T21:34:14.877Z,19.10
2018-06-05T21:36:43.657Z,19.10
2018-06-05T21:39:12.393Z,19.10
2018-06-05T21:44:09.600Z,19.00
2018-06-05T21:46:38.592Z,19.00
2018-06-05T21:49:07.349Z,18.90
2018-06-05T21:51:36.111Z,18.80
2018-06-05T21:54:04.977Z,18.80
2018-06-05T21:56:33.725Z,18.80
2018-06-05T21:59:02.490Z,18.70
2018-06-05T22:01:31.329Z,18.70
2018-06-05T22:04:00.069Z,18.60
2018-06-05T22:08:57.334Z,18.60
2018-06-05T22:11:26.093Z,18.50
2018-06-05T22:13:54.881Z,18.50
2018-06-05T22:16:23.653Z,18.40
2018-06-05T22:18:52.401Z,18.40
2018-06-05T22:23:49.654Z,18.30
2018-06-05T22:26:18.392Z,18.20
2018-06-05T22:28:47.144Z,18.20
2018-06-05T22:33:44.349Z,18.10
2018-06-05T22:36:13.089Z,18.00
2018-06-05T22:38:41.845Z,18.00
2018-06-05T22:41:10.585Z,18.00
2018-06-05T22:43:39.353Z,17.90
2018-06-05T22:46:08.109Z,17.90
2018-06-05T22:48:36.877Z,17.90
2018-06-05T22:51:05.603Z,17.80
2018-06-05T22:53:34.349Z,17.80
2018-06-05T22:56:03.089Z,17.70
2018-06-05T22:58:31.859Z,17.70
2018-06-05T23:01:00.593Z,17.70
2018-06-05T23:03:29.356Z,17.60
2018-06-05T23:05:58.106Z,17.60
2018-06-05T23:08:26.911Z,17.50
2018-06-05T23:10:55.669Z,17.50
2018-06-05T23:13:24.429Z,17.50
2018-06-05T23:15:53.194Z,17.40
2018-06-05T23:18:22.010Z,17.40
2018-06-05T23:20:50.769Z,17.40
2018-06-05T23:23:19.539Z,17.30
2018-06-05T23:25:48.321Z,17.30
2018-06-05T23:28:17.087Z,17.30
2018-06-05T23:30:45.934Z,17.20
2018-06-05T23:35:43.245Z,17.20
2018-06-05T23:38:12.003Z,17.10
2018-06-05T23:40:40.745Z,17.10
2018-06-05T23:43:09.538Z,17.10
2018-06-05T23:45:38.293Z,17.10
2018-06-05T23:48:07.061Z,17.10
2018-06-05T23:50:35.817Z,17.10
2018-06-05T23:53:04.678Z,17.10
2018-06-05T23:55:33.409Z,17.00
2018-06-05T23:58:02.164Z,17.00
